sensor_id;sensor_type;location;lat;lon;timestamp;pressure;altitude;pressure_sealevel;temperature;humidity
65013;BME280;51715;39.432;-77.518;2023-07-31T00:02:19;99357.90;;;31.62;25.44
65013;BME280;51715;39.432;-77.518;2023-07-31T00:04:47;99358.52;;;31.48;25.45
65013;BME280;51715;39.432;-77.518;2023-07-31T00:07:16;99364.79;;;31.23;26.17
65013;BME280;51715;39.432;-77.518;2023-07-31T00:09:44;99362.31;;;31.10;25.66
65013;BME280;51715;39.432;-77.518;2023-07-31T00:12:14;99362.79;;;31.27;25.94
65013;BME280;51715;39.432;-77.518;2023-07-31T00:14:43;99363.43;;;30.86;25.95
65013;BME280;51715;39.432;-77.518;2023-07-31T00:17:13;99366.00;;;30.75;26.46
65013;BME280;51715;39.432;-77.518;2023-07-31T00:19:41;99370.76;;;30.67;26.62
65013;BME280;51715;39.432;-77.518;2023-07-31T00:22:10;99373.81;;;30.55;26.08
65013;BME280;51715;39.432;-77.518;2023-07-31T00:24:38;99375.62;;;30.67;26.44
65013;BME280;51715;39.432;-77.518;2023-07-31T00:27:08;99376.76;;;30.76;26.52
65013;BME280;51715;39.432;-77.518;2023-07-31T00:29:36;99382.83;;;30.15;27.14
65013;BME280;51715;39.432;-77.518;2023-07-31T00:32:05;99379.63;;;30.50;27.60
65013;BME280;51715;39.432;-77.518;2023-07-31T00:34:33;99378.75;;;30.16;28.25
65013;BME280;51715;39.432;-77.518;2023-07-31T00:37:08;99378.84;;;30.11;29.08
65013;BME280;51715;39.432;-77.518;2023-07-31T00:39:36;99378.41;;;30.02;28.68
65013;BME280;51715;39.432;-77.518;2023-07-31T00:42:05;99376.92;;;29.98;28.80
65013;BME280;51715;39.432;-77.518;2023-07-31T00:44:33;99376.16;;;29.81;28.93
65013;BME280;51715;39.432;-77.518;2023-07-31T00:47:04;99377.53;;;29.64;29.03
65013;BME280;51715;39.432;-77.518;2023-07-31T00:49:32;99379.92;;;29.50;29.86
65013;BME280;51715;39.432;-77.518;2023-07-31T00:52:01;99380.15;;;29.36;29.83
65013;BME280;51715;39.432;-77.518;2023-07-31T00:54:29;99382.66;;;29.71;29.66
65013;BME280;51715;39.432;-77.518;2023-07-31T00:56:58;99382.34;;;29.53;29.84
65013;BME280;51715;39.432;-77.518;2023-07-31T00:59:27;99385.57;;;29.39;30.71
65013;BME280;51715;39.432;-77.518;2023-07-31T01:01:55;99383.39;;;29.28;29.21
65013;BME280;51715;39.432;-77.518;2023-07-31T01:04:23;99392.18;;;29.19;29.29
65013;BME280;51715;39.432;-77.518;2023-07-31T01:06:58;99400.31;;;29.09;29.28
65013;BME280;51715;39.432;-77.518;2023-07-31T01:09:35;99402.68;;;28.98;30.12
65013;BME280;51715;39.432;-77.518;2023-07-31T01:12:07;99401.93;;;28.85;30.52
65013;BME280;51715;39.432;-77.518;2023-07-31T01:14:37;99410.95;;;28.72;30.72
65013;BME280;51715;39.432;-77.518;2023-07-31T01:17:05;99411.60;;;28.58;31.48
65013;BME280;51715;39.432;-77.518;2023-07-31T01:19:34;99413.85;;;28.42;32.42
65013;BME280;51715;39.432;-77.518;2023-07-31T01:22:22;99413.45;;;28.54;32.73
65013;BME280;51715;39.432;-77.518;2023-07-31T01:25:04;99421.09;;;28.30;32.39
65013;BME280;51715;39.432;-77.518;2023-07-31T01:27:44;99421.44;;;28.37;32.71
65013;BME280;51715;39.432;-77.518;2023-07-31T01:30:19;99419.92;;;28.18;32.80
65013;BME280;51715;39.432;-77.518;2023-07-31T01:32:50;99418.11;;;28.05;32.81
65013;BME280;51715;39.432;-77.518;2023-07-31T01:35:18;99419.24;;;27.68;32.78
65013;BME280;51715;39.432;-77.518;2023-07-31T01:37:47;99422.56;;;27.48;32.92
65013;BME280;51715;39.432;-77.518;2023-07-31T01:40:16;99424.66;;;27.43;33.02
65013;BME280;51715;39.432;-77.518;2023-07-31T01:42:44;99429.47;;;27.63;33.29
65013;BME280;51715;39.432;-77.518;2023-07-31T01:45:13;99427.95;;;27.46;33.26
65013;BME280;51715;39.432;-77.518;2023-07-31T01:47:41;99435.01;;;27.82;33.40
65013;BME280;51715;39.432;-77.518;2023-07-31T01:50:10;99437.62;;;27.50;33.25
65013;BME280;51715;39.432;-77.518;2023-07-31T01:52:39;99439.51;;;27.27;33.43
65013;BME280;51715;39.432;-77.518;2023-07-31T01:55:09;99438.46;;;27.44;33.66
65013;BME280;51715;39.432;-77.518;2023-07-31T01:57:37;99435.49;;;27.14;34.14
65013;BME280;51715;39.432;-77.518;2023-07-31T02:00:07;99438.36;;;27.07;33.59
65013;BME280;51715;39.432;-77.518;2023-07-31T02:02:35;99436.16;;;27.03;33.47
65013;BME280;51715;39.432;-77.518;2023-07-31T02:05:06;99442.74;;;26.97;33.70
65013;BME280;51715;39.432;-77.518;2023-07-31T02:07:35;99444.60;;;27.21;33.99
65013;BME280;51715;39.432;-77.518;2023-07-31T02:10:03;99448.00;;;26.99;34.77
65013;BME280;51715;39.432;-77.518;2023-07-31T02:12:33;99447.93;;;27.01;35.30
65013;BME280;51715;39.432;-77.518;2023-07-31T02:15:00;99451.47;;;27.29;35.40
65013;BME280;51715;39.432;-77.518;2023-07-31T02:17:28;99445.51;;;27.08;35.74
65013;BME280;51715;39.432;-77.518;2023-07-31T02:19:56;99445.78;;;27.54;36.24
65013;BME280;51715;39.432;-77.518;2023-07-31T02:22:24;99444.02;;;27.35;35.37
65013;BME280;51715;39.432;-77.518;2023-07-31T02:24:53;99436.84;;;27.16;34.60
65013;BME280;51715;39.432;-77.518;2023-07-31T02:27:21;99435.79;;;27.14;34.59
65013;BME280;51715;39.432;-77.518;2023-07-31T02:29:49;99433.47;;;27.18;34.21
65013;BME280;51715;39.432;-77.518;2023-07-31T02:32:17;99436.01;;;27.28;34.01
65013;BME280;51715;39.432;-77.518;2023-07-31T02:34:45;99436.18;;;27.30;33.96
65013;BME280;51715;39.432;-77.518;2023-07-31T02:37:14;99437.87;;;27.34;34.43
65013;BME280;51715;39.432;-77.518;2023-07-31T02:39:42;99437.51;;;27.35;34.68
65013;BME280;51715;39.432;-77.518;2023-07-31T02:42:11;99436.23;;;27.39;34.77
65013;BME280;51715;39.432;-77.518;2023-07-31T02:44:39;99433.45;;;27.39;34.98
65013;BME280;51715;39.432;-77.518;2023-07-31T02:47:08;99432.38;;;27.43;34.77
65013;BME280;51715;39.432;-77.518;2023-07-31T02:49:36;99439.27;;;27.39;34.70
65013;BME280;51715;39.432;-77.518;2023-07-31T02:52:06;99443.30;;;27.38;35.16
65013;BME280;51715;39.432;-77.518;2023-07-31T02:54:36;99443.80;;;27.65;35.25
65013;BME280;51715;39.432;-77.518;2023-07-31T02:57:05;99445.66;;;27.52;34.24
65013;BME280;51715;39.432;-77.518;2023-07-31T02:59:33;99452.30;;;27.32;33.84
65013;BME280;51715;39.432;-77.518;2023-07-31T03:02:03;99464.06;;;27.65;34.29
65013;BME280;51715;39.432;-77.518;2023-07-31T03:04:31;99466.54;;;27.81;33.96
65013;BME280;51715;39.432;-77.518;2023-07-31T03:06:59;99472.78;;;27.68;34.10
65013;BME280;51715;39.432;-77.518;2023-07-31T03:09:27;99474.06;;;28.02;34.42
65013;BME280;51715;39.432;-77.518;2023-07-31T03:11:56;99483.77;;;27.90;34.67
65013;BME280;51715;39.432;-77.518;2023-07-31T03:14:24;99496.25;;;27.26;35.34
65013;BME280;51715;39.432;-77.518;2023-07-31T03:16:53;99517.66;;;27.40;35.62
65013;BME280;51715;39.432;-77.518;2023-07-31T03:19:21;99531.92;;;27.62;35.34
65013;BME280;51715;39.432;-77.518;2023-07-31T03:21:49;99546.13;;;27.09;36.30
65013;BME280;51715;39.432;-77.518;2023-07-31T03:24:18;99552.91;;;26.98;36.23
65013;BME280;51715;39.432;-77.518;2023-07-31T03:26:47;99565.14;;;26.73;36.47
65013;BME280;51715;39.432;-77.518;2023-07-31T03:29:14;99565.29;;;26.49;36.91
65013;BME280;51715;39.432;-77.518;2023-07-31T03:31:43;99566.15;;;26.67;37.93
65013;BME280;51715;39.432;-77.518;2023-07-31T03:34:11;99562.68;;;26.80;38.20
65013;BME280;51715;39.432;-77.518;2023-07-31T03:36:40;99565.14;;;26.54;39.53
65013;BME280;51715;39.432;-77.518;2023-07-31T03:39:07;99570.45;;;26.06;40.08
65013;BME280;51715;39.432;-77.518;2023-07-31T03:41:36;99570.78;;;25.76;40.73
65013;BME280;51715;39.432;-77.518;2023-07-31T03:44:04;99574.27;;;25.82;41.25
65013;BME280;51715;39.432;-77.518;2023-07-31T03:46:34;99571.27;;;25.48;41.89
65013;BME280;51715;39.432;-77.518;2023-07-31T03:49:03;99573.89;;;25.26;42.53
65013;BME280;51715;39.432;-77.518;2023-07-31T03:51:32;99576.78;;;25.16;42.97
65013;BME280;51715;39.432;-77.518;2023-07-31T03:54:00;99576.40;;;25.24;43.37
65013;BME280;51715;39.432;-77.518;2023-07-31T03:56:28;99580.70;;;24.73;43.63
65013;BME280;51715;39.432;-77.518;2023-07-31T03:58:57;99583.43;;;24.81;43.56
65013;BME280;51715;39.432;-77.518;2023-07-31T04:04:02;99582.27;;;25.16;42.71
65013;BME280;51715;39.432;-77.518;2023-07-31T04:06:30;99584.32;;;25.17;42.92
65013;BME280;51715;39.432;-77.518;2023-07-31T04:08:59;99585.88;;;25.20;42.94
65013;BME280;51715;39.432;-77.518;2023-07-31T04:11:27;99581.45;;;25.47;42.63
65013;BME280;51715;39.432;-77.518;2023-07-31T04:13:55;99580.64;;;25.20;43.63
65013;BME280;51715;39.432;-77.518;2023-07-31T04:16:23;99582.22;;;24.90;44.27
65013;BME280;51715;39.432;-77.518;2023-07-31T04:18:51;99581.05;;;24.83;44.48
65013;BME280;51715;39.432;-77.518;2023-07-31T04:21:19;99581.67;;;24.80;44.79
65013;BME280;51715;39.432;-77.518;2023-07-31T04:23:47;99576.48;;;24.78;44.86
65013;BME280;51715;39.432;-77.518;2023-07-31T04:26:15;99578.12;;;24.74;45.02
65013;BME280;51715;39.432;-77.518;2023-07-31T04:28:42;99575.33;;;24.73;44.94
65013;BME280;51715;39.432;-77.518;2023-07-31T04:31:10;99574.38;;;24.74;44.87
65013;BME280;51715;39.432;-77.518;2023-07-31T04:33:38;99578.73;;;24.90;45.30
65013;BME280;51715;39.432;-77.518;2023-07-31T04:36:05;99579.42;;;24.60;45.36
65013;BME280;51715;39.432;-77.518;2023-07-31T04:38:38;99587.31;;;24.87;45.48
65013;BME280;51715;39.432;-77.518;2023-07-31T04:41:07;99586.88;;;24.60;45.42
65013;BME280;51715;39.432;-77.518;2023-07-31T04:43:37;99588.22;;;24.68;45.54
65013;BME280;51715;39.432;-77.518;2023-07-31T04:46:05;99585.27;;;24.73;45.37
65013;BME280;51715;39.432;-77.518;2023-07-31T04:48:33;99584.58;;;24.68;45.20
65013;BME280;51715;39.432;-77.518;2023-07-31T04:51:01;99586.41;;;24.74;45.22
65013;BME280;51715;39.432;-77.518;2023-07-31T04:53:29;99588.35;;;25.05;45.42
65013;BME280;51715;39.432;-77.518;2023-07-31T04:55:58;99591.53;;;24.81;45.38
65013;BME280;51715;39.432;-77.518;2023-07-31T04:58:26;99594.31;;;24.82;45.23
65013;BME280;51715;39.432;-77.518;2023-07-31T05:00:55;99598.17;;;24.83;45.40
65013;BME280;51715;39.432;-77.518;2023-07-31T05:03:23;99598.95;;;24.77;45.47
65013;BME280;51715;39.432;-77.518;2023-07-31T05:05:52;99604.36;;;25.04;45.71
65013;BME280;51715;39.432;-77.518;2023-07-31T05:08:19;99603.90;;;24.55;45.62
65013;BME280;51715;39.432;-77.518;2023-07-31T05:10:47;99598.64;;;24.79;45.59
65013;BME280;51715;39.432;-77.518;2023-07-31T05:13:16;99590.46;;;24.45;45.70
65013;BME280;51715;39.432;-77.518;2023-07-31T05:15:44;99579.08;;;24.73;45.90
65013;BME280;51715;39.432;-77.518;2023-07-31T05:18:13;99574.46;;;24.77;46.03
65013;BME280;51715;39.432;-77.518;2023-07-31T05:20:41;99575.02;;;24.50;46.33
65013;BME280;51715;39.432;-77.518;2023-07-31T05:23:09;99570.37;;;24.52;46.34
65013;BME280;51715;39.432;-77.518;2023-07-31T05:25:38;99565.94;;;24.37;46.97
65013;BME280;51715;39.432;-77.518;2023-07-31T05:28:05;99562.50;;;24.40;47.13
65013;BME280;51715;39.432;-77.518;2023-07-31T05:30:33;99560.81;;;24.40;47.21
65013;BME280;51715;39.432;-77.518;2023-07-31T05:33:01;99561.82;;;24.46;47.51
65013;BME280;51715;39.432;-77.518;2023-07-31T05:35:29;99566.60;;;24.52;47.57
65013;BME280;51715;39.432;-77.518;2023-07-31T05:37:57;99565.76;;;24.13;47.53
65013;BME280;51715;39.432;-77.518;2023-07-31T05:40:25;99559.04;;;24.62;47.60
65013;BME280;51715;39.432;-77.518;2023-07-31T05:42:53;99550.19;;;24.59;47.01
65013;BME280;51715;39.432;-77.518;2023-07-31T05:45:22;99533.26;;;23.95;47.22
65013;BME280;51715;39.432;-77.518;2023-07-31T05:47:49;99530.72;;;24.02;47.45
65013;BME280;51715;39.432;-77.518;2023-07-31T05:50:17;99531.68;;;23.76;47.85
65013;BME280;51715;39.432;-77.518;2023-07-31T05:52:45;99529.12;;;24.02;48.29
65013;BME280;51715;39.432;-77.518;2023-07-31T05:55:13;99527.86;;;24.13;48.35
65013;BME280;51715;39.432;-77.518;2023-07-31T05:57:41;99524.60;;;23.99;48.14
65013;BME280;51715;39.432;-77.518;2023-07-31T06:00:11;99522.13;;;24.26;47.92
65013;BME280;51715;39.432;-77.518;2023-07-31T06:02:40;99520.01;;;24.01;47.79
65013;BME280;51715;39.432;-77.518;2023-07-31T06:05:08;99516.47;;;24.25;47.89
65013;BME280;51715;39.432;-77.518;2023-07-31T06:07:37;99508.82;;;24.06;48.13
65013;BME280;51715;39.432;-77.518;2023-07-31T06:10:06;99505.62;;;24.34;48.04
65013;BME280;51715;39.432;-77.518;2023-07-31T06:12:35;99497.05;;;24.29;47.87
65013;BME280;51715;39.432;-77.518;2023-07-31T06:15:04;99495.64;;;24.27;47.80
65013;BME280;51715;39.432;-77.518;2023-07-31T06:17:33;99496.86;;;24.28;47.73
65013;BME280;51715;39.432;-77.518;2023-07-31T06:20:01;99495.96;;;24.30;47.65
65013;BME280;51715;39.432;-77.518;2023-07-31T06:22:30;99492.18;;;24.31;47.40
65013;BME280;51715;39.432;-77.518;2023-07-31T06:24:58;99494.31;;;24.28;47.67
65013;BME280;51715;39.432;-77.518;2023-07-31T06:27:26;99487.69;;;24.24;47.86
65013;BME280;51715;39.432;-77.518;2023-07-31T06:29:55;99483.07;;;24.21;47.61
65013;BME280;51715;39.432;-77.518;2023-07-31T06:32:23;99479.75;;;24.10;47.67
65013;BME280;51715;39.432;-77.518;2023-07-31T06:34:51;99479.11;;;23.98;47.69
65013;BME280;51715;39.432;-77.518;2023-07-31T06:37:20;99473.61;;;24.26;47.62
65013;BME280;51715;39.432;-77.518;2023-07-31T06:39:48;99462.04;;;24.35;47.39
65013;BME280;51715;39.432;-77.518;2023-07-31T06:42:17;99463.77;;;24.01;47.60
65013;BME280;51715;39.432;-77.518;2023-07-31T06:44:45;99461.11;;;24.08;47.67
65013;BME280;51715;39.432;-77.518;2023-07-31T06:47:14;99451.12;;;24.14;47.38
65013;BME280;51715;39.432;-77.518;2023-07-31T06:49:42;99451.91;;;24.01;47.22
65013;BME280;51715;39.432;-77.518;2023-07-31T06:52:10;99454.33;;;24.02;47.03
65013;BME280;51715;39.432;-77.518;2023-07-31T06:54:39;99451.22;;;24.17;46.98
65013;BME280;51715;39.432;-77.518;2023-07-31T06:57:07;99452.20;;;24.22;46.94
65013;BME280;51715;39.432;-77.518;2023-07-31T06:59:36;99444.86;;;24.16;47.00
65013;BME280;51715;39.432;-77.518;2023-07-31T07:02:05;99445.56;;;24.21;46.93
65013;BME280;51715;39.432;-77.518;2023-07-31T07:04:33;99439.70;;;24.18;46.91
65013;BME280;51715;39.432;-77.518;2023-07-31T07:07:01;99432.95;;;24.23;46.87
65013;BME280;51715;39.432;-77.518;2023-07-31T07:09:30;99427.43;;;24.23;46.71
65013;BME280;51715;39.432;-77.518;2023-07-31T07:11:58;99422.25;;;23.91;46.45
65013;BME280;51715;39.432;-77.518;2023-07-31T07:14:27;99423.49;;;24.04;46.71
65013;BME280;51715;39.432;-77.518;2023-07-31T07:16:55;99419.44;;;23.98;46.89
65013;BME280;51715;39.432;-77.518;2023-07-31T07:19:23;99414.20;;;23.98;46.86
65013;BME280;51715;39.432;-77.518;2023-07-31T07:21:51;99413.52;;;23.97;46.77
65013;BME280;51715;39.432;-77.518;2023-07-31T07:24:21;99409.85;;;23.94;46.59
65013;BME280;51715;39.432;-77.518;2023-07-31T07:26:50;99408.01;;;23.90;46.69
65013;BME280;51715;39.432;-77.518;2023-07-31T07:29:19;99403.42;;;24.05;46.10
65013;BME280;51715;39.432;-77.518;2023-07-31T07:31:47;99400.37;;;23.86;46.51
65013;BME280;51715;39.432;-77.518;2023-07-31T07:34:14;99400.73;;;23.73;46.57
65013;BME280;51715;39.432;-77.518;2023-07-31T07:36:44;99398.59;;;23.62;46.70
65013;BME280;51715;39.432;-77.518;2023-07-31T07:39:11;99398.09;;;23.37;46.73
65013;BME280;51715;39.432;-77.518;2023-07-31T07:41:40;99400.56;;;23.57;46.72
65013;BME280;51715;39.432;-77.518;2023-07-31T07:44:08;99402.12;;;23.58;46.73
65013;BME280;51715;39.432;-77.518;2023-07-31T07:46:37;99406.30;;;23.58;46.53
65013;BME280;51715;39.432;-77.518;2023-07-31T07:49:07;99404.95;;;23.62;46.67
65013;BME280;51715;39.432;-77.518;2023-07-31T07:51:35;99403.88;;;23.61;46.57
65013;BME280;51715;39.432;-77.518;2023-07-31T07:54:04;99405.19;;;23.61;46.63
65013;BME280;51715;39.432;-77.518;2023-07-31T07:56:33;99411.04;;;23.61;46.80
65013;BME280;51715;39.432;-77.518;2023-07-31T07:59:01;99410.85;;;23.90;46.84
65013;BME280;51715;39.432;-77.518;2023-07-31T08:01:29;99405.10;;;23.91;46.90
65013;BME280;51715;39.432;-77.518;2023-07-31T08:03:58;99403.93;;;23.93;46.92
65013;BME280;51715;39.432;-77.518;2023-07-31T08:06:27;99407.53;;;23.49;46.80
65013;BME280;51715;39.432;-77.518;2023-07-31T08:08:55;99410.04;;;23.54;46.84
65013;BME280;51715;39.432;-77.518;2023-07-31T08:11:23;99406.02;;;23.74;46.95
65013;BME280;51715;39.432;-77.518;2023-07-31T08:13:51;99412.93;;;23.51;46.91
65013;BME280;51715;39.432;-77.518;2023-07-31T08:16:20;99419.36;;;23.36;47.08
65013;BME280;51715;39.432;-77.518;2023-07-31T08:18:48;99423.13;;;23.64;47.03
65013;BME280;51715;39.432;-77.518;2023-07-31T08:21:17;99426.05;;;23.47;47.05
65013;BME280;51715;39.432;-77.518;2023-07-31T08:23:46;99429.03;;;23.76;46.84
65013;BME280;51715;39.432;-77.518;2023-07-31T08:26:16;99427.10;;;23.72;46.55
65013;BME280;51715;39.432;-77.518;2023-07-31T08:28:45;99425.66;;;23.65;46.42
65013;BME280;51715;39.432;-77.518;2023-07-31T08:31:13;99426.34;;;23.91;46.63
65013;BME280;51715;39.432;-77.518;2023-07-31T08:33:41;99433.43;;;23.49;46.56
65013;BME280;51715;39.432;-77.518;2023-07-31T08:36:10;99440.48;;;23.47;46.56
65013;BME280;51715;39.432;-77.518;2023-07-31T08:38:37;99453.18;;;23.40;46.74
65013;BME280;51715;39.432;-77.518;2023-07-31T08:41:07;99456.43;;;23.72;46.93
65013;BME280;51715;39.432;-77.518;2023-07-31T08:43:36;99458.15;;;23.75;46.91
65013;BME280;51715;39.432;-77.518;2023-07-31T08:46:06;99457.54;;;23.77;46.93
65013;BME280;51715;39.432;-77.518;2023-07-31T08:48:36;99460.95;;;23.58;47.03
65013;BME280;51715;39.432;-77.518;2023-07-31T08:51:05;99462.55;;;23.85;47.17
65013;BME280;51715;39.432;-77.518;2023-07-31T08:53:34;99456.86;;;23.67;46.77
65013;BME280;51715;39.432;-77.518;2023-07-31T08:56:02;99447.30;;;23.73;46.87
65013;BME280;51715;39.432;-77.518;2023-07-31T08:58:31;99444.79;;;23.75;46.80
65013;BME280;51715;39.432;-77.518;2023-07-31T09:01:03;99448.28;;;23.72;46.66
65013;BME280;51715;39.432;-77.518;2023-07-31T09:03:34;99445.60;;;23.75;47.07
65013;BME280;51715;39.432;-77.518;2023-07-31T09:06:05;99446.91;;;24.03;47.00
65013;BME280;51715;39.432;-77.518;2023-07-31T09:08:34;99448.75;;;23.89;46.88
65013;BME280;51715;39.432;-77.518;2023-07-31T09:11:03;99449.85;;;24.12;46.63
65013;BME280;51715;39.432;-77.518;2023-07-31T09:13:31;99453.78;;;23.97;46.40
65013;BME280;51715;39.432;-77.518;2023-07-31T09:16:00;99452.91;;;24.05;46.44
65013;BME280;51715;39.432;-77.518;2023-07-31T09:18:28;99455.82;;;24.11;46.39
65013;BME280;51715;39.432;-77.518;2023-07-31T09:21:05;99462.28;;;24.06;46.35
65013;BME280;51715;39.432;-77.518;2023-07-31T09:23:48;99466.64;;;23.99;46.46
65013;BME280;51715;39.432;-77.518;2023-07-31T09:26:30;99479.81;;;24.02;46.10
65013;BME280;51715;39.432;-77.518;2023-07-31T09:28:59;99487.24;;;23.83;46.29
65013;BME280;51715;39.432;-77.518;2023-07-31T09:31:40;99485.59;;;24.50;46.21
65013;BME280;51715;39.432;-77.518;2023-07-31T09:34:10;99480.12;;;23.94;46.23
65013;BME280;51715;39.432;-77.518;2023-07-31T09:36:41;99482.04;;;24.16;46.30
65013;BME280;51715;39.432;-77.518;2023-07-31T09:39:10;99476.64;;;23.94;46.27
65013;BME280;51715;39.432;-77.518;2023-07-31T09:41:40;99475.98;;;23.78;45.67
65013;BME280;51715;39.432;-77.518;2023-07-31T09:44:09;99477.21;;;23.99;46.23
65013;BME280;51715;39.432;-77.518;2023-07-31T09:46:38;99475.31;;;23.77;46.20
65013;BME280;51715;39.432;-77.518;2023-07-31T09:49:07;99478.86;;;23.99;46.38
65013;BME280;51715;39.432;-77.518;2023-07-31T09:51:36;99479.82;;;24.20;46.43
65013;BME280;51715;39.432;-77.518;2023-07-31T09:54:09;99478.35;;;23.99;46.05
65013;BME280;51715;39.432;-77.518;2023-07-31T09:56:43;99479.26;;;23.99;46.33
65013;BME280;51715;39.432;-77.518;2023-07-31T09:59:14;99479.77;;;23.99;46.07
65013;BME280;51715;39.432;-77.518;2023-07-31T10:01:43;99484.96;;;23.94;46.02
65013;BME280;51715;39.432;-77.518;2023-07-31T10:04:12;99490.28;;;23.91;46.07
65013;BME280;51715;39.432;-77.518;2023-07-31T10:06:43;99489.51;;;23.90;46.16
65013;BME280;51715;39.432;-77.518;2023-07-31T10:09:13;99486.68;;;24.11;45.95
65013;BME280;51715;39.432;-77.518;2023-07-31T10:11:48;99494.55;;;24.07;46.24
65013;BME280;51715;39.432;-77.518;2023-07-31T10:14:19;99495.52;;;23.87;45.86
65013;BME280;51715;39.432;-77.518;2023-07-31T10:16:48;99486.65;;;23.71;46.12
65013;BME280;51715;39.432;-77.518;2023-07-31T10:19:17;99485.03;;;23.93;46.20
65013;BME280;51715;39.432;-77.518;2023-07-31T10:21:46;99492.47;;;23.89;46.45
65013;BME280;51715;39.432;-77.518;2023-07-31T10:24:15;99494.90;;;23.91;46.48
65013;BME280;51715;39.432;-77.518;2023-07-31T10:26:46;99504.16;;;24.12;46.49
65013;BME280;51715;39.432;-77.518;2023-07-31T10:29:17;99507.20;;;23.89;46.52
65013;BME280;51715;39.432;-77.518;2023-07-31T10:31:46;99506.64;;;23.93;46.20
65013;BME280;51715;39.432;-77.518;2023-07-31T10:34:15;99502.84;;;23.92;46.37
65013;BME280;51715;39.432;-77.518;2023-07-31T10:36:43;99500.04;;;23.95;46.38
65013;BME280;51715;39.432;-77.518;2023-07-31T10:39:34;99499.99;;;24.00;46.43
65013;BME280;51715;39.432;-77.518;2023-07-31T10:42:11;99501.80;;;24.00;46.50
65013;BME280;51715;39.432;-77.518;2023-07-31T10:44:44;99505.33;;;24.08;46.29
65013;BME280;51715;39.432;-77.518;2023-07-31T10:47:15;99510.65;;;24.13;46.30
65013;BME280;51715;39.432;-77.518;2023-07-31T10:49:45;99519.10;;;23.92;46.27
65013;BME280;51715;39.432;-77.518;2023-07-31T10:52:15;99527.70;;;24.19;46.09
65013;BME280;51715;39.432;-77.518;2023-07-31T10:54:47;99537.83;;;24.21;45.97
65013;BME280;51715;39.432;-77.518;2023-07-31T10:57:20;99547.13;;;24.07;45.92
65013;BME280;51715;39.432;-77.518;2023-07-31T10:59:49;99551.23;;;24.34;45.74
65013;BME280;51715;39.432;-77.518;2023-07-31T11:02:26;99558.25;;;24.40;45.53
65013;BME280;51715;39.432;-77.518;2023-07-31T11:05:11;99564.82;;;24.46;45.44
65013;BME280;51715;39.432;-77.518;2023-07-31T11:07:57;99573.26;;;24.02;45.28
65013;BME280;51715;39.432;-77.518;2023-07-31T11:10:25;99578.62;;;24.58;45.24
65013;BME280;51715;39.432;-77.518;2023-07-31T11:12:54;99578.41;;;24.17;45.08
65013;BME280;51715;39.432;-77.518;2023-07-31T11:15:21;99581.70;;;24.25;45.05
65013;BME280;51715;39.432;-77.518;2023-07-31T11:17:50;99582.37;;;24.58;45.28
65013;BME280;51715;39.432;-77.518;2023-07-31T11:20:19;99590.17;;;24.63;45.11
65013;BME280;51715;39.432;-77.518;2023-07-31T11:22:48;99598.62;;;24.67;45.35
65013;BME280;51715;39.432;-77.518;2023-07-31T11:25:17;99602.18;;;24.23;45.35
65013;BME280;51715;39.432;-77.518;2023-07-31T11:27:45;99602.77;;;24.54;45.27
65013;BME280;51715;39.432;-77.518;2023-07-31T11:30:14;99600.10;;;24.62;45.02
65013;BME280;51715;39.432;-77.518;2023-07-31T11:32:43;99602.80;;;24.96;44.84
65013;BME280;51715;39.432;-77.518;2023-07-31T11:35:13;99607.25;;;25.22;44.87
65013;BME280;51715;39.432;-77.518;2023-07-31T11:37:41;99606.21;;;24.79;45.19
65013;BME280;51715;39.432;-77.518;2023-07-31T11:40:11;99608.71;;;24.95;44.25
65013;BME280;51715;39.432;-77.518;2023-07-31T11:42:39;99607.98;;;25.02;44.26
65013;BME280;51715;39.432;-77.518;2023-07-31T11:45:09;99615.05;;;25.11;43.36
65013;BME280;51715;39.432;-77.518;2023-07-31T11:47:39;99616.16;;;25.33;44.23
65013;BME280;51715;39.432;-77.518;2023-07-31T11:50:10;99613.99;;;25.07;44.39
65013;BME280;51715;39.432;-77.518;2023-07-31T11:52:41;99614.87;;;25.07;44.34
65013;BME280;51715;39.432;-77.518;2023-07-31T11:55:13;99615.94;;;24.88;43.75
65013;BME280;51715;39.432;-77.518;2023-07-31T11:57:42;99611.19;;;24.85;44.71
65013;BME280;51715;39.432;-77.518;2023-07-31T12:00:13;99609.91;;;25.09;44.45
65013;BME280;51715;39.432;-77.518;2023-07-31T12:02:43;99612.34;;;25.27;44.14
65013;BME280;51715;39.432;-77.518;2023-07-31T12:05:13;99619.24;;;25.31;43.65
65013;BME280;51715;39.432;-77.518;2023-07-31T12:07:46;99620.04;;;25.25;43.76
65013;BME280;51715;39.432;-77.518;2023-07-31T12:10:32;99625.91;;;25.25;43.33
65013;BME280;51715;39.432;-77.518;2023-07-31T12:13:03;99626.49;;;25.22;43.42
65013;BME280;51715;39.432;-77.518;2023-07-31T12:15:40;99626.88;;;25.35;43.28
65013;BME280;51715;39.432;-77.518;2023-07-31T12:18:10;99628.78;;;25.24;43.09
65013;BME280;51715;39.432;-77.518;2023-07-31T12:20:44;99634.37;;;25.24;43.50
65013;BME280;51715;39.432;-77.518;2023-07-31T12:23:14;99629.81;;;25.33;42.72
65013;BME280;51715;39.432;-77.518;2023-07-31T12:25:43;99627.66;;;25.63;42.98
65013;BME280;51715;39.432;-77.518;2023-07-31T12:28:11;99630.81;;;25.47;43.45
65013;BME280;51715;39.432;-77.518;2023-07-31T12:30:40;99638.15;;;25.85;43.50
65013;BME280;51715;39.432;-77.518;2023-07-31T12:33:14;99637.55;;;26.03;43.87
65013;BME280;51715;39.432;-77.518;2023-07-31T12:35:44;99634.95;;;26.24;43.12
65013;BME280;51715;39.432;-77.518;2023-07-31T12:38:13;99634.65;;;25.96;43.86
65013;BME280;51715;39.432;-77.518;2023-07-31T12:40:42;99636.46;;;26.15;42.76
65013;BME280;51715;39.432;-77.518;2023-07-31T12:43:10;99636.24;;;26.18;42.37
65013;BME280;51715;39.432;-77.518;2023-07-31T12:45:38;99638.32;;;26.35;41.38
65013;BME280;51715;39.432;-77.518;2023-07-31T12:48:07;99641.49;;;26.49;42.25
65013;BME280;51715;39.432;-77.518;2023-07-31T12:50:36;99645.66;;;25.89;41.65
65013;BME280;51715;39.432;-77.518;2023-07-31T12:53:05;99646.30;;;26.53;41.71
65013;BME280;51715;39.432;-77.518;2023-07-31T12:55:34;99643.45;;;26.53;42.26